Time;durP1;ratioP1;P1;durP2;ratioP2;P2;SDS_P1;SDS_P2;PMS_P1;PMS_P2;Temp;Humidity;BMP_temperature;BMP_pressure;BME280_temperature;BME280_humidity;BME280_pressure;Samples;Min_cycle;Max_cycle;Signal;HPM_P1;HPM_P2
2021/12/17 00:01:47;;;;;;;7.73;3.87;;;;;;;;;;5027612;28;20242;-80
2021/12/17 00:04:26;;;;;;;8.37;3.20;;;;;;;;;;5027014;28;20290;-81
2021/12/17 00:06:55;;;;;;;7.60;3.30;;;;;;;;;;5025460;28;20696;-81
2021/12/17 00:09:22;;;;;;;8.30;3.20;;;;;;;;;;5026096;28;20210;-80
2021/12/17 00:11:50;;;;;;;5.67;2.87;;;;;;;;;;5025654;28;20222;-80
2021/12/17 00:14:25;;;;;;;6.50;3.00;;;;;;;;;;5025067;28;20338;-81
2021/12/17 00:16:52;;;;;;;4.87;2.93;;;;;;;;;;5024588;28;20586;-81
2021/12/17 00:19:29;;;;;;;5.63;2.63;;;;;;;;;;5025171;28;20219;-80
2021/12/17 00:46:35;;;;;;;4.43;2.67;;;;;;;;;;5023977;28;20234;-80
2021/12/17 00:50:01;;;;;;;7.33;2.40;;;;;;;;;;5025778;28;20198;-79
2021/12/17 00:52:30;;;;;;;3.87;2.00;;;;;;;;;;5020694;28;20234;-80
2021/12/17 00:54:58;;;;;;;4.93;1.87;;;;;;;;;;5014406;28;20239;-79
2021/12/17 00:57:30;;;;;;;2.73;1.60;;;;;;;;;;5015608;28;20287;-80
2021/12/17 00:59:58;;;;;;;4.30;1.63;;;;;;;;;;5017607;28;20208;-80
2021/12/17 01:02:27;;;;;;;4.47;1.80;;;;;;;;;;5016541;28;20247;-80
2021/12/17 01:04:56;;;;;;;7.60;1.97;;;;;;;;;;5013738;28;20614;-80
2021/12/17 01:07:24;;;;;;;5.77;2.20;;;;;;;;;;5012494;28;20274;-82
2021/12/17 01:09:57;;;;;;;5.10;2.03;;;;;;;;;;5038903;22;20219;31
2021/12/17 01:12:26;;;;;;;3.73;2.10;;;;;;;;;;4979318;28;20782;-82
2021/12/17 01:14:54;;;;;;;4.13;2.43;;;;;;;;;;4983430;28;20715;-82
2021/12/17 01:17:22;;;;;;;3.53;2.03;;;;;;;;;;4982695;28;21217;-81
2021/12/17 01:25:38;;;;;;;7.27;2.20;;;;;;;;;;4982097;28;20205;-82
2021/12/17 01:36:20;;;;;;;6.37;2.00;;;;;;;;;;4983035;28;20234;-82
2021/12/17 01:44:19;;;;;;;6.43;1.73;;;;;;;;;;4972138;28;20508;-82
2021/12/17 01:46:49;;;;;;;2.93;1.80;;;;;;;;;;4982832;28;20207;-82
2021/12/17 01:49:28;;;;;;;6.27;2.13;;;;;;;;;;4982600;28;20221;-82
2021/12/17 02:00:20;;;;;;;5.67;2.40;;;;;;;;;;4988254;28;20243;-82
2021/12/17 02:02:48;;;;;;;5.77;2.00;;;;;;;;;;4989448;28;20268;-81
2021/12/17 02:05:15;;;;;;;5.50;2.30;;;;;;;;;;4987193;28;20209;-82
2021/12/17 02:07:44;;;;;;;7.83;2.10;;;;;;;;;;4986577;28;20276;-83
2021/12/17 02:19:28;;;;;;;9.40;2.33;;;;;;;;;;4984715;28;20722;-82
2021/12/17 02:32:33;;;;;;;6.53;3.00;;;;;;;;;;4967173;28;20268;-83
2021/12/17 02:35:19;;;;;;;11.40;3.40;;;;;;;;;;4982309;28;20229;-82
2021/12/17 02:37:49;;;;;;;8.80;4.50;;;;;;;;;;4984335;28;20669;-82
2021/12/17 02:42:27;;;;;;;6.53;3.30;;;;;;;;;;4988006;28;20729;-82
2021/12/17 02:45:52;;;;;;;6.97;3.43;;;;;;;;;;4987451;28;20204;-82
2021/12/17 02:48:20;;;;;;;8.37;3.53;;;;;;;;;;4983955;28;20211;-83
2021/12/17 02:50:48;;;;;;;6.77;3.03;;;;;;;;;;4986213;28;20226;-82
2021/12/17 02:53:19;;;;;;;7.23;3.30;;;;;;;;;;4986418;28;20273;-82
2021/12/17 02:55:48;;;;;;;5.80;3.00;;;;;;;;;;4987896;28;20228;-82
2021/12/17 02:58:16;;;;;;;6.07;2.57;;;;;;;;;;4988543;28;20212;-82
2021/12/17 03:00:44;;;;;;;8.30;2.83;;;;;;;;;;4990922;28;20894;-82
2021/12/17 03:03:12;;;;;;;3.97;2.27;;;;;;;;;;4984290;28;20299;-81
2021/12/17 03:05:41;;;;;;;5.27;2.23;;;;;;;;;;4984906;28;20230;-82
2021/12/17 03:08:13;;;;;;;8.73;3.83;;;;;;;;;;4983675;28;20665;-82
2021/12/17 03:10:42;;;;;;;9.40;4.27;;;;;;;;;;4983415;28;20234;-82
2021/12/17 03:13:10;;;;;;;10.60;3.83;;;;;;;;;;4982339;28;20232;-82
2021/12/17 03:15:47;;;;;;;9.07;3.33;;;;;;;;;;4984908;28;20272;-82
2021/12/17 03:23:46;;;;;;;7.40;3.60;;;;;;;;;;4986292;28;20293;-83
2021/12/17 03:26:17;;;;;;;8.57;3.40;;;;;;;;;;4983450;28;20237;-83
2021/12/17 03:28:47;;;;;;;6.43;2.90;;;;;;;;;;4983685;28;20209;-83
2021/12/17 03:31:16;;;;;;;6.83;3.20;;;;;;;;;;4981408;28;20608;-82
2021/12/17 03:33:44;;;;;;;8.57;3.20;;;;;;;;;;4979760;28;20208;-81
2021/12/17 03:36:14;;;;;;;7.37;3.00;;;;;;;;;;4981270;28;20236;-82
2021/12/17 03:38:42;;;;;;;4.90;2.57;;;;;;;;;;4978364;28;20390;-81
2021/12/17 03:41:18;;;;;;;4.07;2.20;;;;;;;;;;4979860;28;20239;-81
2021/12/17 03:43:47;;;;;;;5.50;2.73;;;;;;;;;;4982766;28;20197;-81
2021/12/17 03:46:14;;;;;;;5.17;2.50;;;;;;;;;;4982103;28;20914;-81
2021/12/17 03:48:42;;;;;;;8.90;2.90;;;;;;;;;;4976492;28;20300;-81
2021/12/17 03:51:14;;;;;;;11.77;3.47;;;;;;;;;;4983660;28;20239;-81
2021/12/17 03:53:43;;;;;;;9.47;3.07;;;;;;;;;;4988225;28;20208;-81
2021/12/17 03:56:10;;;;;;;4.60;2.50;;;;;;;;;;4987930;28;20224;-82
2021/12/17 03:58:37;;;;;;;5.60;2.63;;;;;;;;;;4981556;28;20703;-82
2021/12/17 04:01:06;;;;;;;5.53;2.30;;;;;;;;;;4980568;28;20248;-81
2021/12/17 04:03:34;;;;;;;5.20;2.53;;;;;;;;;;4978473;28;20201;-81
2021/12/17 04:06:01;;;;;;;6.00;2.40;;;;;;;;;;4979172;28;20209;-82
2021/12/17 04:08:29;;;;;;;6.50;2.80;;;;;;;;;;4980196;28;20229;-82
2021/12/17 04:11:04;;;;;;;9.20;2.93;;;;;;;;;;4978126;28;20232;-81
2021/12/17 04:13:34;;;;;;;7.57;3.87;;;;;;;;;;4981948;28;20209;-82
2021/12/17 04:16:04;;;;;;;8.80;3.40;;;;;;;;;;4981924;28;20229;-82
2021/12/17 04:18:35;;;;;;;12.17;2.80;;;;;;;;;;4978153;28;20567;-82
2021/12/17 04:21:03;;;;;;;5.30;2.63;;;;;;;;;;4978422;28;20225;-83
2021/12/17 04:23:31;;;;;;;5.60;2.83;;;;;;;;;;4981095;28;20217;-81
2021/12/17 04:25:59;;;;;;;6.30;2.87;;;;;;;;;;4981459;28;20201;-82
2021/12/17 04:28:26;;;;;;;4.63;2.50;;;;;;;;;;4979538;28;20279;-82
2021/12/17 04:30:54;;;;;;;7.27;2.93;;;;;;;;;;4978834;28;20709;-82
2021/12/17 04:33:21;;;;;;;5.40;2.97;;;;;;;;;;4981198;28;20219;-82
2021/12/17 04:35:50;;;;;;;6.57;2.70;;;;;;;;;;4982559;28;20260;-81
2021/12/17 04:38:18;;;;;;;5.90;2.43;;;;;;;;;;4985083;28;20202;-81
2021/12/17 04:40:46;;;;;;;6.47;2.60;;;;;;;;;;4986202;28;20233;-82
2021/12/17 04:43:22;;;;;;;5.30;2.70;;;;;;;;;;4982314;28;20205;-82
2021/12/17 04:45:59;;;;;;;5.63;2.60;;;;;;;;;;4983899;28;20225;-81
2021/12/17 04:59:28;;;;;;;5.57;2.60;;;;;;;;;;4987489;28;20219;-81
2021/12/17 05:01:55;;;;;;;3.97;2.10;;;;;;;;;;4989147;28;20225;-82
2021/12/17 05:04:22;;;;;;;3.67;2.40;;;;;;;;;;4986923;28;20320;-82
2021/12/17 05:06:51;;;;;;;4.63;2.13;;;;;;;;;;4988526;28;20653;-82
2021/12/17 05:09:29;;;;;;;4.43;2.10;;;;;;;;;;4998462;28;20216;-81
2021/12/17 05:20:26;;;;;;;3.53;1.93;;;;;;;;;;4992143;28;20224;-83
2021/12/17 05:22:57;;;;;;;4.07;2.00;;;;;;;;;;4987525;28;20776;-83
2021/12/17 05:25:27;;;;;;;8.63;4.30;;;;;;;;;;4988888;28;20212;-83
2021/12/17 05:27:59;;;;;;;8.00;3.87;;;;;;;;;;4982639;28;20209;-82
2021/12/17 05:30:27;;;;;;;9.30;3.30;;;;;;;;;;4983455;28;20320;-82
2021/12/17 05:32:54;;;;;;;5.53;3.00;;;;;;;;;;4980688;28;20213;-82
2021/12/17 05:35:21;;;;;;;5.63;3.27;;;;;;;;;;4980891;28;20257;-81
2021/12/17 05:37:49;;;;;;;50.40;25.43;;;;;;;;;;4984245;28;20691;-83
2021/12/17 05:40:17;;;;;;;12.80;6.00;;;;;;;;;;4986515;28;20224;-81
2021/12/17 05:42:47;;;;;;;13.07;6.20;;;;;;;;;;4983285;28;20213;-82
2021/12/17 05:45:22;;;;;;;9.80;5.33;;;;;;;;;;4986253;28;20288;-84
2021/12/17 05:47:50;;;;;;;7.83;4.20;;;;;;;;;;4986042;28;20218;-82
2021/12/17 05:50:17;;;;;;;8.10;3.97;;;;;;;;;;4987497;28;20256;-83
2021/12/17 05:52:44;;;;;;;8.47;3.70;;;;;;;;;;4987830;28;20207;-81
2021/12/17 05:55:12;;;;;;;6.40;3.47;;;;;;;;;;4988494;28;20327;-81
2021/12/17 05:57:40;;;;;;;6.63;3.90;;;;;;;;;;4989663;28;20232;-81
2021/12/17 06:00:08;;;;;;;9.60;4.10;;;;;;;;;;4984366;28;20212;-82
2021/12/17 06:02:35;;;;;;;8.07;3.87;;;;;;;;;;4984014;28;20292;-84
2021/12/17 06:05:02;;;;;;;6.97;3.90;;;;;;;;;;4985854;28;20272;-82
2021/12/17 06:07:30;;;;;;;8.10;4.30;;;;;;;;;;4986421;28;20207;-84
2021/12/17 06:10:01;;;;;;;7.57;4.37;;;;;;;;;;4986169;28;20209;-81
2021/12/17 06:12:29;;;;;;;8.20;4.20;;;;;;;;;;4983806;28;20735;-82
2021/12/17 06:14:57;;;;;;;13.13;6.47;;;;;;;;;;4984551;28;20744;-84
2021/12/17 06:17:24;;;;;;;13.30;7.37;;;;;;;;;;4984944;28;20252;-84
2021/12/17 06:19:52;;;;;;;13.03;6.77;;;;;;;;;;4984663;28;20232;-82
2021/12/17 06:22:19;;;;;;;12.33;6.47;;;;;;;;;;4984165;28;20873;-81
2021/12/17 06:24:46;;;;;;;11.57;5.97;;;;;;;;;;4984063;28;20711;-83
2021/12/17 06:27:13;;;;;;;10.30;4.70;;;;;;;;;;4983252;28;20230;-82
2021/12/17 06:29:41;;;;;;;8.17;4.00;;;;;;;;;;4986459;28;20209;-83
2021/12/17 06:32:10;;;;;;;9.03;4.43;;;;;;;;;;4985279;28;20229;-84
2021/12/17 06:34:38;;;;;;;10.60;3.80;;;;;;;;;;4985701;28;21398;-83
2021/12/17 06:37:06;;;;;;;8.30;4.03;;;;;;;;;;4985066;28;20224;-82
2021/12/17 06:39:33;;;;;;;7.40;3.57;;;;;;;;;;4986224;28;20585;-83
2021/12/17 06:42:00;;;;;;;7.50;3.60;;;;;;;;;;4989175;28;20233;-84
2021/12/17 06:44:28;;;;;;;6.33;3.70;;;;;;;;;;4993512;28;20268;-81
2021/12/17 06:47:00;;;;;;;6.10;3.57;;;;;;;;;;4994598;28;20295;-85
2021/12/17 06:49:43;;;;;;;8.50;4.10;;;;;;;;;;4989568;28;20201;-81
2021/12/17 06:55:05;;;;;;;7.93;3.90;;;;;;;;;;4989974;28;20291;-81
2021/12/17 07:00:33;;;;;;;6.47;3.93;;;;;;;;;;4990177;28;20216;-82
2021/12/17 07:06:01;;;;;;;7.07;3.80;;;;;;;;;;4987757;28;20208;-82
2021/12/17 07:11:33;;;;;;;5.93;3.90;;;;;;;;;;5048131;22;20245;-81
2021/12/17 07:22:31;;;;;;;13.57;5.97;;;;;;;;;;5056652;28;20233;-82
2021/12/17 07:28:09;;;;;;;8.87;4.90;;;;;;;;;;5047788;28;20214;-80
2021/12/17 07:33:32;;;;;;;8.23;4.77;;;;;;;;;;5053154;28;20202;-83
2021/12/17 07:36:08;;;;;;;9.43;4.83;;;;;;;;;;5054591;28;20258;-82
2021/12/17 07:38:38;;;;;;;10.40;5.10;;;;;;;;;;5061529;28;20190;-82
2021/12/17 07:41:06;;;;;;;9.40;5.30;;;;;;;;;;5062638;28;20226;-82
2021/12/17 07:43:38;;;;;;;10.60;5.00;;;;;;;;;;5069315;28;20229;-81
2021/12/17 07:46:06;;;;;;;13.43;4.80;;;;;;;;;;5067100;28;20214;-82
2021/12/17 07:48:33;;;;;;;8.70;4.40;;;;;;;;;;5066433;28;20218;-82
2021/12/17 07:51:02;;;;;;;9.53;4.47;;;;;;;;;;5071907;28;20237;-81
2021/12/17 07:53:30;;;;;;;12.60;4.50;;;;;;;;;;5074436;28;20210;-81
2021/12/17 07:56:00;;;;;;;9.47;4.90;;;;;;;;;;5061798;28;20241;-81
2021/12/17 07:58:28;;;;;;;14.27;6.90;;;;;;;;;;5060538;28;20653;-81
2021/12/17 08:00:55;;;;;;;15.50;5.80;;;;;;;;;;5061101;28;20219;-81
2021/12/17 08:03:24;;;;;;;14.63;6.63;;;;;;;;;;5058929;28;20702;-81
2021/12/17 08:05:52;;;;;;;16.00;6.90;;;;;;;;;;5059042;28;20282;-81
2021/12/17 08:08:19;;;;;;;11.53;5.70;;;;;;;;;;5065803;28;20572;-81
2021/12/17 08:10:48;;;;;;;11.00;5.40;;;;;;;;;;5065362;28;20284;-81
2021/12/17 08:13:21;;;;;;;8.73;4.57;;;;;;;;;;5059211;28;20248;-81
2021/12/17 08:16:04;;;;;;;8.70;4.40;;;;;;;;;;5064314;28;20210;-81
2021/12/17 08:26:57;;;;;;;10.63;5.00;;;;;;;;;;5064625;28;20203;-81
2021/12/17 08:29:43;;;;;;;12.30;5.33;;;;;;;;;;5061272;28;20210;-81
2021/12/17 08:32:10;;;;;;;11.20;5.87;;;;;;;;;;5065398;28;20413;-81
2021/12/17 08:34:38;;;;;;;13.53;6.00;;;;;;;;;;5064466;28;20238;-82
2021/12/17 08:37:06;;;;;;;12.03;6.30;;;;;;;;;;5064306;28;20233;-81
2021/12/17 08:39:34;;;;;;;10.87;5.37;;;;;;;;;;5067917;28;20206;-81
2021/12/17 08:42:01;;;;;;;12.17;5.27;;;;;;;;;;5067726;28;20850;-81
2021/12/17 08:44:30;;;;;;;14.60;6.50;;;;;;;;;;5066102;28;20221;-82
2021/12/17 08:46:57;;;;;;;8.10;4.17;;;;;;;;;;5066879;28;20276;-82
2021/12/17 08:49:24;;;;;;;9.97;4.80;;;;;;;;;;5064744;28;20214;-83
2021/12/17 08:51:51;;;;;;;11.80;5.37;;;;;;;;;;5061111;28;20246;-85
2021/12/17 08:54:18;;;;;;;14.40;5.50;;;;;;;;;;5062902;28;20198;-83
2021/12/17 08:56:48;;;;;;;9.50;5.03;;;;;;;;;;5066706;28;20233;-84
2021/12/17 08:59:16;;;;;;;11.87;5.10;;;;;;;;;;5077697;28;20233;-81
2021/12/17 09:01:45;;;;;;;12.90;5.77;;;;;;;;;;5083934;28;20215;-80
2021/12/17 09:04:13;;;;;;;11.50;5.27;;;;;;;;;;5081833;28;20199;-80
2021/12/17 09:06:40;;;;;;;10.57;5.50;;;;;;;;;;5069002;28;20260;-84
2021/12/17 09:09:08;;;;;;;13.73;5.93;;;;;;;;;;5065443;28;20746;-84
2021/12/17 09:11:35;;;;;;;11.53;5.70;;;;;;;;;;5062876;28;20254;-83
2021/12/17 09:14:03;;;;;;;16.30;6.13;;;;;;;;;;5067161;28;20262;-83
2021/12/17 09:16:30;;;;;;;12.00;6.13;;;;;;;;;;5068669;28;20333;-83
2021/12/17 09:18:58;;;;;;;12.97;5.93;;;;;;;;;;5062131;28;20202;-81
2021/12/17 09:21:26;;;;;;;17.40;5.40;;;;;;;;;;5060691;28;20249;-83
2021/12/17 09:23:54;;;;;;;13.47;5.90;;;;;;;;;;5059731;28;20237;-83
2021/12/17 09:26:22;;;;;;;12.90;5.80;;;;;;;;;;5066810;28;20206;-84
2021/12/17 09:28:49;;;;;;;14.17;5.83;;;;;;;;;;5063558;28;20258;-84
2021/12/17 09:31:16;;;;;;;11.60;5.90;;;;;;;;;;5064561;28;20718;-83
2021/12/17 09:33:44;;;;;;;13.57;5.80;;;;;;;;;;5083668;28;20230;-81
2021/12/17 09:36:13;;;;;;;17.10;6.97;;;;;;;;;;5072500;28;20289;-83
2021/12/17 09:38:40;;;;;;;12.07;6.93;;;;;;;;;;5064739;28;20252;-85
2021/12/17 09:41:08;;;;;;;16.87;8.10;;;;;;;;;;5066517;28;20258;-80
2021/12/17 09:43:37;;;;;;;19.13;8.40;;;;;;;;;;5062595;28;20202;-83
2021/12/17 09:46:06;;;;;;;16.03;7.80;;;;;;;;;;5067102;28;20213;-83
2021/12/17 09:48:33;;;;;;;20.53;7.63;;;;;;;;;;5069026;28;20260;-83
2021/12/17 09:51:01;;;;;;;15.50;7.57;;;;;;;;;;5066009;28;20297;-83
2021/12/17 09:53:30;;;;;;;12.70;6.20;;;;;;;;;;5068725;28;20207;-81
2021/12/17 09:55:57;;;;;;;14.33;6.27;;;;;;;;;;5068159;28;20233;-83
2021/12/17 09:58:25;;;;;;;13.27;6.77;;;;;;;;;;5070056;28;20261;-83
2021/12/17 10:00:52;;;;;;;16.13;8.00;;;;;;;;;;5068106;28;20256;-82
2021/12/17 10:03:20;;;;;;;15.30;8.30;;;;;;;;;;5067748;28;20246;-82
2021/12/17 10:05:47;;;;;;;18.77;7.90;;;;;;;;;;5069119;28;20207;-83
2021/12/17 10:08:16;;;;;;;13.67;7.73;;;;;;;;;;5065638;28;20264;-81
2021/12/17 10:10:45;;;;;;;16.23;8.13;;;;;;;;;;5066431;28;20226;-83
2021/12/17 10:13:13;;;;;;;16.70;7.97;;;;;;;;;;5066146;28;20246;-82
2021/12/17 10:15:42;;;;;;;20.50;8.67;;;;;;;;;;5069353;28;20345;-83
2021/12/17 10:18:09;;;;;;;18.20;8.60;;;;;;;;;;5067894;28;20244;-82
2021/12/17 10:20:38;;;;;;;15.80;8.17;;;;;;;;;;5064695;28;20258;-84
2021/12/17 10:23:07;;;;;;;16.47;8.00;;;;;;;;;;5066778;28;20248;-82
2021/12/17 10:25:35;;;;;;;16.07;8.10;;;;;;;;;;5059667;28;20289;-84
2021/12/17 10:28:05;;;;;;;21.63;8.03;;;;;;;;;;5061919;28;20285;-82
2021/12/17 10:30:32;;;;;;;18.10;8.37;;;;;;;;;;5059039;28;20284;-81
2021/12/17 10:33:02;;;;;;;19.53;8.23;;;;;;;;;;5052980;28;20737;-85
2021/12/17 10:35:30;;;;;;;19.47;8.40;;;;;;;;;;5057590;28;20294;-83
2021/12/17 10:38:03;;;;;;;18.23;8.37;;;;;;;;;;5077168;28;20224;-82
2021/12/17 10:40:32;;;;;;;22.03;8.50;;;;;;;;;;5076318;28;20209;-81
2021/12/17 10:43:03;;;;;;;16.20;7.97;;;;;;;;;;5065686;28;20237;-83
2021/12/17 10:45:46;;;;;;;15.70;7.67;;;;;;;;;;5055824;28;20199;-82
2021/12/17 10:48:27;;;;;;;17.70;8.40;;;;;;;;;;5062565;28;20203;-84
2021/12/17 10:50:55;;;;;;;15.23;8.03;;;;;;;;;;5062856;28;20280;-83
2021/12/17 10:53:23;;;;;;;17.83;7.90;;;;;;;;;;5058656;28;20225;-82
2021/12/17 10:55:51;;;;;;;22.30;11.50;;;;;;;;;;5059163;28;20285;-82
2021/12/17 10:58:18;;;;;;;25.33;12.03;;;;;;;;;;5057251;28;20744;-82
2021/12/17 11:00:51;;;;;;;23.03;10.30;;;;;;;;;;5061300;28;20227;-82
2021/12/17 11:03:18;;;;;;;22.17;10.17;;;;;;;;;;5057230;28;20697;-84
2021/12/17 11:05:46;;;;;;;18.17;8.83;;;;;;;;;;5059910;28;20229;-82
2021/12/17 11:08:30;;;;;;;24.33;10.50;;;;;;;;;;5059731;28;20289;-84
2021/12/17 11:11:05;;;;;;;21.73;9.03;;;;;;;;;;5058979;28;20238;-82
2021/12/17 11:13:33;;;;;;;20.43;9.57;;;;;;;;;;5060268;28;20217;-83
2021/12/17 11:16:01;;;;;;;20.33;8.07;;;;;;;;;;5059368;28;20203;-83
2021/12/17 11:18:29;;;;;;;21.53;8.07;;;;;;;;;;5056807;28;20295;-82
2021/12/17 11:20:57;;;;;;;19.23;8.30;;;;;;;;;;5057059;28;20253;-82
2021/12/17 11:23:24;;;;;;;20.30;8.43;;;;;;;;;;5061019;28;20202;-82
2021/12/17 11:25:54;;;;;;;16.33;8.77;;;;;;;;;;5058760;28;20665;-80
2021/12/17 11:28:22;;;;;;;17.90;8.23;;;;;;;;;;5056166;28;20235;-82
2021/12/17 11:30:50;;;;;;;19.87;8.93;;;;;;;;;;5059989;28;20740;-82
2021/12/17 11:33:19;;;;;;;18.50;8.70;;;;;;;;;;5062094;28;20218;-81
2021/12/17 11:35:47;;;;;;;18.43;8.70;;;;;;;;;;5062595;28;20225;-81
2021/12/17 11:38:16;;;;;;;15.47;8.37;;;;;;;;;;5058560;28;20317;-81
2021/12/17 11:40:47;;;;;;;16.47;8.53;;;;;;;;;;5054875;28;20746;-82
2021/12/17 11:43:26;;;;;;;15.73;8.83;;;;;;;;;;5055583;28;20250;-82
2021/12/17 11:46:01;;;;;;;17.70;8.90;;;;;;;;;;5056103;28;20275;-80
2021/12/17 11:48:30;;;;;;;21.23;8.90;;;;;;;;;;5054338;28;20751;-82
2021/12/17 11:51:05;;;;;;;18.83;8.97;;;;;;;;;;5054777;28;20219;-81
2021/12/17 11:53:32;;;;;;;22.03;9.03;;;;;;;;;;5060201;28;20210;-82
2021/12/17 11:56:00;;;;;;;16.77;7.73;;;;;;;;;;5058269;28;20206;-83
2021/12/17 11:58:43;;;;;;;15.87;7.53;;;;;;;;;;5052298;28;20227;-80
2021/12/17 12:01:11;;;;;;;18.17;8.60;;;;;;;;;;5054188;28;20223;-82
2021/12/17 12:03:39;;;;;;;15.73;8.10;;;;;;;;;;5060882;28;20242;-81
2021/12/17 12:06:07;;;;;;;18.23;8.20;;;;;;;;;;5056123;28;20235;-80
2021/12/17 12:08:45;;;;;;;19.43;8.50;;;;;;;;;;5058503;28;20597;-82
2021/12/17 12:11:13;;;;;;;18.60;8.00;;;;;;;;;;5060523;28;20588;-81
2021/12/17 12:13:42;;;;;;;17.20;8.20;;;;;;;;;;5059327;28;20266;-82
2021/12/17 12:16:10;;;;;;;17.63;7.70;;;;;;;;;;5052699;28;20285;-83
2021/12/17 12:18:46;;;;;;;18.70;8.07;;;;;;;;;;5054659;28;20219;-83
2021/12/17 12:21:15;;;;;;;15.53;8.40;;;;;;;;;;5074833;28;20218;-80
2021/12/17 12:23:47;;;;;;;14.67;7.80;;;;;;;;;;5075254;28;20257;-82
2021/12/17 12:26:16;;;;;;;20.27;8.10;;;;;;;;;;5061832;28;20225;-82
2021/12/17 12:28:49;;;;;;;15.27;7.97;;;;;;;;;;5063627;28;20788;-81
2021/12/17 12:31:37;;;;;;;15.50;7.70;;;;;;;;;;5060026;28;20238;-82
2021/12/17 12:34:10;;;;;;;18.13;8.17;;;;;;;;;;5062041;28;20206;-82
2021/12/17 12:36:48;;;;;;;14.83;7.23;;;;;;;;;;5063516;28;20203;-81
2021/12/17 12:39:16;;;;;;;13.57;7.50;;;;;;;;;;5063620;28;20307;-80
2021/12/17 12:41:45;;;;;;;13.70;7.07;;;;;;;;;;5065055;28;20238;-81
2021/12/17 12:44:12;;;;;;;15.83;8.07;;;;;;;;;;5058712;28;20297;-81
2021/12/17 12:46:56;;;;;;;15.57;8.13;;;;;;;;;;5060493;28;20238;-81
2021/12/17 12:49:41;;;;;;;15.87;8.67;;;;;;;;;;5063763;28;20191;-82
2021/12/17 12:52:25;;;;;;;16.03;8.00;;;;;;;;;;5059436;28;20331;-81
2021/12/17 12:54:53;;;;;;;15.40;7.43;;;;;;;;;;5071271;28;20653;-81
2021/12/17 12:57:27;;;;;;;14.80;7.70;;;;;;;;;;5066156;28;20614;-80
2021/12/17 12:59:55;;;;;;;15.30;7.50;;;;;;;;;;5061081;28;20218;-82
2021/12/17 13:02:25;;;;;;;13.47;7.37;;;;;;;;;;5063854;28;20265;-82
2021/12/17 13:04:53;;;;;;;12.70;6.90;;;;;;;;;;5067195;28;20213;-81
2021/12/17 13:07:33;;;;;;;13.13;7.47;;;;;;;;;;5062704;28;20283;-81
2021/12/17 13:10:07;;;;;;;14.23;7.53;;;;;;;;;;5063247;28;20733;-82
2021/12/17 13:15:16;;;;;;;14.33;6.97;;;;;;;;;;5022721;28;20693;-80
2021/12/17 13:20:17;;;;;;;14.93;7.97;;;;;;;;;;5019942;28;20231;-81
2021/12/17 13:20:54;;;;;;;17.40;7.37;;;;;;;;;;5023249;28;20207;-81
2021/12/17 13:23:23;;;;;;;13.73;6.77;;;;;;;;;;5027312;28;20591;-81
2021/12/17 13:26:01;;;;;;;12.13;6.40;;;;;;;;;;5028042;28;20597;-80
2021/12/17 13:28:28;;;;;;;15.50;6.97;;;;;;;;;;5019439;28;20227;-80
2021/12/17 13:30:55;;;;;;;15.07;6.50;;;;;;;;;;5019390;28;20239;-80
2021/12/17 13:33:23;;;;;;;14.93;5.73;;;;;;;;;;5023484;28;20235;-80
2021/12/17 13:35:50;;;;;;;12.70;5.30;;;;;;;;;;5021772;28;20280;-80
2021/12/17 13:38:17;;;;;;;9.07;5.17;;;;;;;;;;5020095;28;20350;-80
2021/12/17 13:40:53;;;;;;;21.77;13.57;;;;;;;;;;5015544;28;20231;-81
2021/12/17 13:43:27;;;;;;;15.60;8.57;;;;;;;;;;5023048;28;20211;-80
2021/12/17 13:45:55;;;;;;;30.90;17.27;;;;;;;;;;5011863;28;20256;-80
2021/12/17 13:48:23;;;;;;;11.07;6.17;;;;;;;;;;5012463;28;20209;-80
2021/12/17 13:50:50;;;;;;;11.13;4.97;;;;;;;;;;5023630;28;20204;-80
2021/12/17 13:53:18;;;;;;;10.40;4.37;;;;;;;;;;5025801;28;20213;-80
2021/12/17 13:55:47;;;;;;;8.30;4.37;;;;;;;;;;5026978;28;20270;-80
2021/12/17 13:58:16;;;;;;;8.07;4.43;;;;;;;;;;5026308;28;20259;-80
2021/12/17 14:00:44;;;;;;;7.03;4.20;;;;;;;;;;5023712;28;20204;-80
2021/12/17 14:03:13;;;;;;;8.87;3.93;;;;;;;;;;5024372;28;20214;-79
2021/12/17 14:05:48;;;;;;;10.67;4.50;;;;;;;;;;5023468;28;20305;-81
2021/12/17 14:08:16;;;;;;;8.67;4.27;;;;;;;;;;5029811;28;20318;-81
2021/12/17 14:10:44;;;;;;;6.80;3.90;;;;;;;;;;5023004;28;20650;-81
2021/12/17 14:13:18;;;;;;;6.67;3.77;;;;;;;;;;5020745;28;20294;-81
2021/12/17 14:15:46;;;;;;;11.83;5.30;;;;;;;;;;5020639;28;20241;-81
2021/12/17 14:18:16;;;;;;;9.47;4.77;;;;;;;;;;5022070;28;20265;-80
2021/12/17 14:20:44;;;;;;;7.63;3.60;;;;;;;;;;5011640;28;20759;-80
2021/12/17 14:23:12;;;;;;;5.73;3.00;;;;;;;;;;5004028;28;20667;-79
2021/12/17 14:25:41;;;;;;;12.03;3.30;;;;;;;;;;5011686;28;20282;-78
2021/12/17 14:28:13;;;;;;;6.37;3.20;;;;;;;;;;5013265;28;20283;-80
2021/12/17 14:30:43;;;;;;;7.03;3.60;;;;;;;;;;5012125;28;20285;-80
2021/12/17 14:33:12;;;;;;;7.47;3.40;;;;;;;;;;5016582;28;20782;-79
2021/12/17 14:35:47;;;;;;;8.63;4.43;;;;;;;;;;5018859;28;20223;-80
2021/12/17 14:38:14;;;;;;;10.27;4.10;;;;;;;;;;5009419;28;20685;-79
2021/12/17 14:40:46;;;;;;;6.43;3.33;;;;;;;;;;5013109;28;20232;-80
2021/12/17 14:43:21;;;;;;;5.97;3.10;;;;;;;;;;5009752;28;20207;-79
2021/12/17 14:45:55;;;;;;;12.10;6.90;;;;;;;;;;5010705;28;20884;-80
2021/12/17 14:48:32;;;;;;;9.43;4.20;;;;;;;;;;5018683;28;20200;-79
2021/12/17 15:04:57;;;;;;;4.27;2.60;;;;;;;;;;4990752;28;20220;-80
2021/12/17 15:07:25;;;;;;;4.83;2.97;;;;;;;;;;5000567;28;20212;-79
2021/12/17 15:09:52;;;;;;;6.80;3.20;;;;;;;;;;5011430;28;20739;-79
2021/12/17 15:12:38;;;;;;;3.90;2.07;;;;;;;;;;5017076;28;20981;-79
2021/12/17 15:15:08;;;;;;;3.10;2.07;;;;;;;;;;5010537;28;20710;-79
2021/12/17 15:17:37;;;;;;;4.43;2.67;;;;;;;;;;5019529;28;20518;-81
2021/12/17 15:20:05;;;;;;;4.97;2.30;;;;;;;;;;5019033;28;20319;-78
2021/12/17 15:22:32;;;;;;;4.10;2.10;;;;;;;;;;5014700;28;20238;-78
2021/12/17 15:24:59;;;;;;;6.83;2.07;;;;;;;;;;5002522;28;20255;-81
2021/12/17 15:27:29;;;;;;;6.20;2.20;;;;;;;;;;5017305;28;20297;-81
2021/12/17 16:18:38;;;;;;;20.83;7.00;;;;;;;;;;5005155;28;20235;-81
2021/12/17 16:21:06;;;;;;;23.73;7.77;;;;;;;;;;5003172;28;20667;-80
2021/12/17 16:23:35;;;;;;;24.70;9.63;;;;;;;;;;5006133;28;20685;-81
2021/12/17 16:26:02;;;;;;;42.27;15.93;;;;;;;;;;5010519;28;20680;-82
2021/12/17 16:28:33;;;;;;;45.23;16.07;;;;;;;;;;5010725;28;20228;-81
2021/12/17 16:31:04;;;;;;;24.87;8.90;;;;;;;;;;5013979;28;20211;-79
2021/12/17 16:33:32;;;;;;;12.43;6.70;;;;;;;;;;5011018;28;20295;-81
2021/12/17 16:36:00;;;;;;;22.17;9.57;;;;;;;;;;5013157;28;20267;-80
2021/12/17 16:38:28;;;;;;;13.93;6.43;;;;;;;;;;5002580;28;20251;-81
2021/12/17 16:40:55;;;;;;;5.47;2.57;;;;;;;;;;5004722;28;20216;-81
2021/12/17 16:43:23;;;;;;;11.00;4.13;;;;;;;;;;5001328;28;20200;-81
2021/12/17 16:46:12;;;;;;;23.13;13.20;;;;;;;;;;5014196;28;20224;-82
2021/12/17 16:48:40;;;;;;;17.40;7.27;;;;;;;;;;5015057;28;20203;-80
2021/12/17 16:51:08;;;;;;;19.17;9.17;;;;;;;;;;5018970;28;20204;-81
2021/12/17 16:53:35;;;;;;;20.33;9.97;;;;;;;;;;5015960;28;20212;-81
2021/12/17 16:56:02;;;;;;;11.00;5.97;;;;;;;;;;5016809;28;20286;-80
2021/12/17 16:58:30;;;;;;;12.93;5.27;;;;;;;;;;5019160;28;20295;-81
2021/12/17 17:00:59;;;;;;;8.37;4.23;;;;;;;;;;5014184;28;20643;-80
2021/12/17 17:03:26;;;;;;;7.90;3.90;;;;;;;;;;5018171;28;20239;-80
2021/12/17 17:05:54;;;;;;;9.80;4.80;;;;;;;;;;5015368;28;20308;-81
2021/12/17 17:08:21;;;;;;;9.90;4.30;;;;;;;;;;5018075;28;20238;-81
2021/12/17 17:10:52;;;;;;;10.53;5.80;;;;;;;;;;5011123;28;20201;-81
2021/12/17 17:13:20;;;;;;;11.90;4.20;;;;;;;;;;5017120;28;20224;-79
2021/12/17 17:15:48;;;;;;;10.20;6.13;;;;;;;;;;5017624;28;20693;-78
2021/12/17 17:18:17;;;;;;;7.57;4.00;;;;;;;;;;5015668;28;20291;-80
2021/12/17 17:20:44;;;;;;;11.63;5.13;;;;;;;;;;5021116;28;20926;-79
2021/12/17 17:23:11;;;;;;;14.03;7.90;;;;;;;;;;5015797;28;20204;-79
2021/12/17 17:25:39;;;;;;;6.33;3.70;;;;;;;;;;5022230;28;20259;-80
2021/12/17 17:28:06;;;;;;;5.57;3.03;;;;;;;;;;5012730;28;20601;-79
2021/12/17 17:30:34;;;;;;;5.57;2.93;;;;;;;;;;5022277;28;20207;-79
2021/12/17 17:33:01;;;;;;;8.23;3.60;;;;;;;;;;5015277;28;20295;-80
2021/12/17 17:35:30;;;;;;;10.43;5.10;;;;;;;;;;5013486;28;20318;-80
2021/12/17 17:37:57;;;;;;;9.60;4.70;;;;;;;;;;5025501;28;20204;-80
2021/12/17 17:40:24;;;;;;;9.37;5.53;;;;;;;;;;5024743;28;20717;-81
2021/12/17 17:42:51;;;;;;;9.40;5.10;;;;;;;;;;5016621;28;20299;-80
2021/12/17 17:45:19;;;;;;;17.27;6.30;;;;;;;;;;5015042;28;20358;-80
2021/12/17 17:47:47;;;;;;;12.23;6.10;;;;;;;;;;5017717;28;20612;-79
2021/12/17 17:50:14;;;;;;;11.13;6.37;;;;;;;;;;5015132;28;20279;-81
2021/12/17 17:52:43;;;;;;;13.60;6.80;;;;;;;;;;5015875;28;20238;-82
2021/12/17 17:55:10;;;;;;;14.03;6.00;;;;;;;;;;5011346;28;20240;-79
2021/12/17 17:57:38;;;;;;;13.53;7.00;;;;;;;;;;5020038;28;20204;-79
2021/12/17 18:00:10;;;;;;;10.43;5.43;;;;;;;;;;5015223;28;20615;-80
2021/12/17 18:02:37;;;;;;;10.73;5.00;;;;;;;;;;5020785;28;20575;-80
2021/12/17 18:05:08;;;;;;;10.67;4.60;;;;;;;;;;5021592;28;20251;-80
2021/12/17 18:07:35;;;;;;;9.00;4.90;;;;;;;;;;5008541;28;20291;-79
2021/12/17 18:10:04;;;;;;;9.57;4.53;;;;;;;;;;5017281;28;20296;-80
2021/12/17 18:12:31;;;;;;;11.53;4.90;;;;;;;;;;5010785;28;20259;-79